sensor_id;sensor_type;location;lat;lon;timestamp;temperature;humidity
40622;DHT22;26324;52.040;11.528;2022-10-28T00:00:13;15.10;84.20
40622;DHT22;26324;52.040;11.528;2022-10-28T00:02:39;15.10;84.30
40622;DHT22;26324;52.040;11.528;2022-10-28T00:05:05;15.10;84.20
40622;DHT22;26324;52.040;11.528;2022-10-28T00:07:31;15.10;84.30
40622;DHT22;26324;52.040;11.528;2022-10-28T00:09:56;15.10;84.30
40622;DHT22;26324;52.040;11.528;2022-10-28T00:12:22;15.10;84.40
40622;DHT22;26324;52.040;11.528;2022-10-28T00:14:47;15.10;84.70
40622;DHT22;26324;52.040;11.528;2022-10-28T00:17:13;15.10;84.70
40622;DHT22;26324;52.040;11.528;2022-10-28T00:19:38;15.10;84.80
40622;DHT22;26324;52.040;11.528;2022-10-28T00:22:04;15.10;84.90
40622;DHT22;26324;52.040;11.528;2022-10-28T00:24:29;15.10;84.80
40622;DHT22;26324;52.040;11.528;2022-10-28T00:26:55;15.10;84.80
40622;DHT22;26324;52.040;11.528;2022-10-28T00:29:20;15.10;84.80
40622;DHT22;26324;52.040;11.528;2022-10-28T00:31:46;15.10;84.70
40622;DHT22;26324;52.040;11.528;2022-10-28T00:34:17;15.10;84.70
40622;DHT22;26324;52.040;11.528;2022-10-28T00:36:45;15.10;84.60
40622;DHT22;26324;52.040;11.528;2022-10-28T00:41:42;15.20;84.70
40622;DHT22;26324;52.040;11.528;2022-10-28T00:52:40;15.20;84.50
40622;DHT22;26324;52.040;11.528;2022-10-28T00:55:07;15.20;84.60
40622;DHT22;26324;52.040;11.528;2022-10-28T00:57:35;15.20;84.50
40622;DHT22;26324;52.040;11.528;2022-10-28T01:00:04;15.30;84.50
40622;DHT22;26324;52.040;11.528;2022-10-28T01:02:32;15.20;84.40
40622;DHT22;26324;52.040;11.528;2022-10-28T01:05:00;15.20;84.50
40622;DHT22;26324;52.040;11.528;2022-10-28T01:07:26;15.10;84.50
40622;DHT22;26324;52.040;11.528;2022-10-28T01:09:52;15.10;84.80
40622;DHT22;26324;52.040;11.528;2022-10-28T01:15:15;15.00;85.00
40622;DHT22;26324;52.040;11.528;2022-10-28T01:31:56;14.70;86.20
40622;DHT22;26324;52.040;11.528;2022-10-28T01:34:45;14.70;86.30
40622;DHT22;26324;52.040;11.528;2022-10-28T01:40:00;14.80;86.00
40622;DHT22;26324;52.040;11.528;2022-10-28T01:45:24;14.80;85.80
40622;DHT22;26324;52.040;11.528;2022-10-28T01:47:56;14.80;85.80
40622;DHT22;26324;52.040;11.528;2022-10-28T01:50:29;14.80;85.70
40622;DHT22;26324;52.040;11.528;2022-10-28T01:53:02;14.90;85.60
40622;DHT22;26324;52.040;11.528;2022-10-28T01:55:35;14.90;85.50
40622;DHT22;26324;52.040;11.528;2022-10-28T01:58:03;14.90;85.40
40622;DHT22;26324;52.040;11.528;2022-10-28T02:00:31;15.00;85.40
40622;DHT22;26324;52.040;11.528;2022-10-28T02:02:57;14.90;85.50
40622;DHT22;26324;52.040;11.528;2022-10-28T02:13:58;14.80;85.50
40622;DHT22;26324;52.040;11.528;2022-10-28T02:21:36;14.80;85.50
40622;DHT22;26324;52.040;11.528;2022-10-28T02:24:53;14.80;85.50
40622;DHT22;26324;52.040;11.528;2022-10-28T02:27:15;14.90;85.40
40622;DHT22;26324;52.040;11.528;2022-10-28T02:29:49;14.90;85.20
40622;DHT22;26324;52.040;11.528;2022-10-28T02:32:20;14.90;85.10
40622;DHT22;26324;52.040;11.528;2022-10-28T02:34:52;14.90;85.10
40622;DHT22;26324;52.040;11.528;2022-10-28T02:37:27;14.90;85.10
40622;DHT22;26324;52.040;11.528;2022-10-28T02:40:01;14.90;85.10
40622;DHT22;26324;52.040;11.528;2022-10-28T02:42:34;14.90;85.10
40622;DHT22;26324;52.040;11.528;2022-10-28T02:45:05;14.90;85.10
40622;DHT22;26324;52.040;11.528;2022-10-28T02:47:34;14.80;85.20
40622;DHT22;26324;52.040;11.528;2022-10-28T02:50:05;14.80;85.10
40622;DHT22;26324;52.040;11.528;2022-10-28T02:52:32;14.80;85.20
40622;DHT22;26324;52.040;11.528;2022-10-28T02:55:00;14.80;85.10
40622;DHT22;26324;52.040;11.528;2022-10-28T02:57:34;14.80;85.10
40622;DHT22;26324;52.040;11.528;2022-10-28T03:00:05;14.80;85.20
40622;DHT22;26324;52.040;11.528;2022-10-28T03:02:31;14.80;84.90
40622;DHT22;26324;52.040;11.528;2022-10-28T03:04:56;14.80;84.80
40622;DHT22;26324;52.040;11.528;2022-10-28T03:07:22;14.70;84.80
40622;DHT22;26324;52.040;11.528;2022-10-28T03:09:47;14.60;84.80
40622;DHT22;26324;52.040;11.528;2022-10-28T03:12:13;14.60;84.80
40622;DHT22;26324;52.040;11.528;2022-10-28T03:14:39;14.60;84.70
40622;DHT22;26324;52.040;11.528;2022-10-28T03:17:05;14.60;84.60
40622;DHT22;26324;52.040;11.528;2022-10-28T03:19:32;14.60;84.20
40622;DHT22;26324;52.040;11.528;2022-10-28T03:21:57;14.50;84.20
40622;DHT22;26324;52.040;11.528;2022-10-28T03:24:23;14.50;84.30
40622;DHT22;26324;52.040;11.528;2022-10-28T03:26:48;14.30;84.60
40622;DHT22;26324;52.040;11.528;2022-10-28T03:29:14;14.20;84.90
40622;DHT22;26324;52.040;11.528;2022-10-28T03:31:39;14.10;85.00
40622;DHT22;26324;52.040;11.528;2022-10-28T03:34:05;14.10;85.00
40622;DHT22;26324;52.040;11.528;2022-10-28T03:36:30;14.10;85.10
40622;DHT22;26324;52.040;11.528;2022-10-28T03:38:56;14.00;85.10
40622;DHT22;26324;52.040;11.528;2022-10-28T03:41:21;13.80;85.90
40622;DHT22;26324;52.040;11.528;2022-10-28T03:43:47;13.90;86.10
40622;DHT22;26324;52.040;11.528;2022-10-28T03:46:12;14.00;86.10
40622;DHT22;26324;52.040;11.528;2022-10-28T03:48:38;14.00;85.90
40622;DHT22;26324;52.040;11.528;2022-10-28T03:51:03;14.00;85.90
40622;DHT22;26324;52.040;11.528;2022-10-28T03:53:29;14.10;85.70
40622;DHT22;26324;52.040;11.528;2022-10-28T03:55:56;14.10;85.60
40622;DHT22;26324;52.040;11.528;2022-10-28T03:58:22;14.10;85.40
40622;DHT22;26324;52.040;11.528;2022-10-28T04:00:49;14.10;85.50
40622;DHT22;26324;52.040;11.528;2022-10-28T04:03:15;14.10;85.60
40622;DHT22;26324;52.040;11.528;2022-10-28T04:05:41;14.10;85.50
40622;DHT22;26324;52.040;11.528;2022-10-28T04:08:07;14.00;85.50
40622;DHT22;26324;52.040;11.528;2022-10-28T04:10:33;13.90;85.90
40622;DHT22;26324;52.040;11.528;2022-10-28T04:13:00;13.80;86.20
40622;DHT22;26324;52.040;11.528;2022-10-28T04:15:25;13.70;86.80
40622;DHT22;26324;52.040;11.528;2022-10-28T04:17:51;13.60;87.40
40622;DHT22;26324;52.040;11.528;2022-10-28T04:20:16;13.70;87.40
40622;DHT22;26324;52.040;11.528;2022-10-28T04:22:42;13.90;87.10
40622;DHT22;26324;52.040;11.528;2022-10-28T04:25:08;13.90;86.80
40622;DHT22;26324;52.040;11.528;2022-10-28T04:27:33;13.70;87.40
40622;DHT22;26324;52.040;11.528;2022-10-28T04:29:59;13.70;87.80
40622;DHT22;26324;52.040;11.528;2022-10-28T04:32:24;13.70;88.20
40622;DHT22;26324;52.040;11.528;2022-10-28T04:34:50;13.70;88.30
40622;DHT22;26324;52.040;11.528;2022-10-28T04:37:15;13.80;88.30
40622;DHT22;26324;52.040;11.528;2022-10-28T04:39:41;13.90;88.30
40622;DHT22;26324;52.040;11.528;2022-10-28T04:42:06;14.00;88.10
40622;DHT22;26324;52.040;11.528;2022-10-28T04:44:32;14.00;87.90
40622;DHT22;26324;52.040;11.528;2022-10-28T04:46:58;14.10;87.70
40622;DHT22;26324;52.040;11.528;2022-10-28T04:49:24;14.10;87.20
40622;DHT22;26324;52.040;11.528;2022-10-28T04:51:49;14.30;86.70
40622;DHT22;26324;52.040;11.528;2022-10-28T04:54:15;14.20;86.30
40622;DHT22;26324;52.040;11.528;2022-10-28T04:56:41;14.20;85.80
40622;DHT22;26324;52.040;11.528;2022-10-28T04:59:06;14.10;86.10
40622;DHT22;26324;52.040;11.528;2022-10-28T05:01:32;14.00;86.20
40622;DHT22;26324;52.040;11.528;2022-10-28T05:03:57;14.00;86.30
40622;DHT22;26324;52.040;11.528;2022-10-28T05:06:23;14.00;86.50
40622;DHT22;26324;52.040;11.528;2022-10-28T05:08:48;14.00;86.30
40622;DHT22;26324;52.040;11.528;2022-10-28T05:11:14;14.00;86.30
40622;DHT22;26324;52.040;11.528;2022-10-28T05:13:40;14.00;86.10
40622;DHT22;26324;52.040;11.528;2022-10-28T05:16:06;13.90;86.30
40622;DHT22;26324;52.040;11.528;2022-10-28T05:18:31;13.80;86.90
40622;DHT22;26324;52.040;11.528;2022-10-28T05:20:57;13.80;87.30
40622;DHT22;26324;52.040;11.528;2022-10-28T05:23:23;13.80;87.80
40622;DHT22;26324;52.040;11.528;2022-10-28T05:25:50;13.80;87.80
40622;DHT22;26324;52.040;11.528;2022-10-28T05:28:16;13.80;87.80
40622;DHT22;26324;52.040;11.528;2022-10-28T05:30:42;13.90;87.80
40622;DHT22;26324;52.040;11.528;2022-10-28T05:33:09;13.90;87.90
40622;DHT22;26324;52.040;11.528;2022-10-28T05:35:36;14.00;87.90
40622;DHT22;26324;52.040;11.528;2022-10-28T05:38:01;14.00;87.70
40622;DHT22;26324;52.040;11.528;2022-10-28T05:40:27;14.10;87.70
40622;DHT22;26324;52.040;11.528;2022-10-28T05:42:52;14.10;87.60
40622;DHT22;26324;52.040;11.528;2022-10-28T05:45:18;14.30;87.40
40622;DHT22;26324;52.040;11.528;2022-10-28T05:47:47;14.20;87.30
40622;DHT22;26324;52.040;11.528;2022-10-28T05:50:14;14.20;87.10
40622;DHT22;26324;52.040;11.528;2022-10-28T05:52:45;14.30;87.10
40622;DHT22;26324;52.040;11.528;2022-10-28T05:55:11;14.30;87.00
40622;DHT22;26324;52.040;11.528;2022-10-28T05:57:37;14.30;87.00
40622;DHT22;26324;52.040;11.528;2022-10-28T06:00:03;14.30;86.90
40622;DHT22;26324;52.040;11.528;2022-10-28T06:02:29;14.30;86.90
40622;DHT22;26324;52.040;11.528;2022-10-28T06:04:54;14.40;86.90
40622;DHT22;26324;52.040;11.528;2022-10-28T06:07:20;14.30;86.90
40622;DHT22;26324;52.040;11.528;2022-10-28T06:09:45;14.40;87.00
40622;DHT22;26324;52.040;11.528;2022-10-28T06:12:11;14.40;87.10
40622;DHT22;26324;52.040;11.528;2022-10-28T06:14:36;14.40;87.10
40622;DHT22;26324;52.040;11.528;2022-10-28T06:17:02;14.40;87.10
40622;DHT22;26324;52.040;11.528;2022-10-28T06:19:28;14.50;86.90
40622;DHT22;26324;52.040;11.528;2022-10-28T06:21:53;14.50;86.80
40622;DHT22;26324;52.040;11.528;2022-10-28T06:24:19;14.50;86.70
40622;DHT22;26324;52.040;11.528;2022-10-28T06:26:45;14.60;86.50
40622;DHT22;26324;52.040;11.528;2022-10-28T06:29:11;14.60;86.50
40622;DHT22;26324;52.040;11.528;2022-10-28T06:31:40;14.60;86.50
40622;DHT22;26324;52.040;11.528;2022-10-28T06:34:08;14.60;86.50
40622;DHT22;26324;52.040;11.528;2022-10-28T06:36:33;14.70;86.40
40622;DHT22;26324;52.040;11.528;2022-10-28T06:38:59;14.80;86.30
40622;DHT22;26324;52.040;11.528;2022-10-28T06:41:24;14.80;86.20
40622;DHT22;26324;52.040;11.528;2022-10-28T06:43:50;14.80;86.10
40622;DHT22;26324;52.040;11.528;2022-10-28T06:46:18;14.90;85.90
40622;DHT22;26324;52.040;11.528;2022-10-28T06:48:43;15.00;85.60
40622;DHT22;26324;52.040;11.528;2022-10-28T06:51:09;15.00;85.50
40622;DHT22;26324;52.040;11.528;2022-10-28T06:53:35;15.10;85.40
40622;DHT22;26324;52.040;11.528;2022-10-28T06:56:00;15.00;85.20
40622;DHT22;26324;52.040;11.528;2022-10-28T06:58:26;15.10;85.00
40622;DHT22;26324;52.040;11.528;2022-10-28T07:00:52;15.10;85.00
40622;DHT22;26324;52.040;11.528;2022-10-28T07:03:18;15.10;84.90
40622;DHT22;26324;52.040;11.528;2022-10-28T07:05:48;15.10;84.90
40622;DHT22;26324;52.040;11.528;2022-10-28T07:08:15;15.10;85.10
40622;DHT22;26324;52.040;11.528;2022-10-28T07:10:42;15.10;85.20
40622;DHT22;26324;52.040;11.528;2022-10-28T07:13:12;15.10;85.30
40622;DHT22;26324;52.040;11.528;2022-10-28T07:15:37;15.20;85.10
40622;DHT22;26324;52.040;11.528;2022-10-28T07:18:03;15.30;85.00
40622;DHT22;26324;52.040;11.528;2022-10-28T07:20:29;15.40;85.00
40622;DHT22;26324;52.040;11.528;2022-10-28T07:23:00;15.50;84.60
40622;DHT22;26324;52.040;11.528;2022-10-28T07:25:28;15.60;84.60
40622;DHT22;26324;52.040;11.528;2022-10-28T07:27:56;15.70;84.20
40622;DHT22;26324;52.040;11.528;2022-10-28T07:30:23;15.90;83.60
40622;DHT22;26324;52.040;11.528;2022-10-28T07:32:48;16.10;83.00
40622;DHT22;26324;52.040;11.528;2022-10-28T07:35:14;16.20;82.30
40622;DHT22;26324;52.040;11.528;2022-10-28T07:37:39;16.30;81.70
40622;DHT22;26324;52.040;11.528;2022-10-28T07:40:05;16.50;81.50
40622;DHT22;26324;52.040;11.528;2022-10-28T07:42:32;16.60;81.40
40622;DHT22;26324;52.040;11.528;2022-10-28T07:44:58;16.70;80.80
40622;DHT22;26324;52.040;11.528;2022-10-28T07:47:24;16.70;80.50
40622;DHT22;26324;52.040;11.528;2022-10-28T07:49:50;16.70;80.70
40622;DHT22;26324;52.040;11.528;2022-10-28T07:52:16;16.70;80.50
40622;DHT22;26324;52.040;11.528;2022-10-28T07:54:41;16.90;80.20
40622;DHT22;26324;52.040;11.528;2022-10-28T07:57:07;17.10;79.70
40622;DHT22;26324;52.040;11.528;2022-10-28T07:59:33;17.20;79.40
40622;DHT22;26324;52.040;11.528;2022-10-28T08:01:58;17.30;79.20
40622;DHT22;26324;52.040;11.528;2022-10-28T08:04:24;17.40;79.10
40622;DHT22;26324;52.040;11.528;2022-10-28T08:06:49;17.50;78.50
40622;DHT22;26324;52.040;11.528;2022-10-28T08:09:15;17.40;78.60
40622;DHT22;26324;52.040;11.528;2022-10-28T08:11:40;17.30;79.00
40622;DHT22;26324;52.040;11.528;2022-10-28T08:14:06;17.30;78.90
40622;DHT22;26324;52.040;11.528;2022-10-28T08:16:32;17.40;79.40
40622;DHT22;26324;52.040;11.528;2022-10-28T08:18:57;17.60;79.40
40622;DHT22;26324;52.040;11.528;2022-10-28T08:21:23;17.80;78.60
40622;DHT22;26324;52.040;11.528;2022-10-28T08:23:49;17.90;77.50
40622;DHT22;26324;52.040;11.528;2022-10-28T08:26:16;18.00;77.30
40622;DHT22;26324;52.040;11.528;2022-10-28T08:28:42;18.00;77.50
40622;DHT22;26324;52.040;11.528;2022-10-28T08:31:07;18.00;77.40
40622;DHT22;26324;52.040;11.528;2022-10-28T08:33:35;18.00;77.70
40622;DHT22;26324;52.040;11.528;2022-10-28T08:36:02;18.00;77.30
40622;DHT22;26324;52.040;11.528;2022-10-28T08:38:28;18.00;77.70
40622;DHT22;26324;52.040;11.528;2022-10-28T08:48:43;18.30;77.80
40622;DHT22;26324;52.040;11.528;2022-10-28T08:51:19;18.30;77.90
40622;DHT22;26324;52.040;11.528;2022-10-28T08:53:55;18.30;77.70
40622;DHT22;26324;52.040;11.528;2022-10-28T08:58:52;18.40;77.70
40622;DHT22;26324;52.040;11.528;2022-10-28T09:01:34;18.40;78.00
40622;DHT22;26324;52.040;11.528;2022-10-28T09:04:04;18.30;78.20
40622;DHT22;26324;52.040;11.528;2022-10-28T09:06:35;18.30;77.90
40622;DHT22;26324;52.040;11.528;2022-10-28T09:09:00;18.30;78.30
40622;DHT22;26324;52.040;11.528;2022-10-28T09:11:43;18.40;78.10
40622;DHT22;26324;52.040;11.528;2022-10-28T09:14:47;18.50;78.60
40622;DHT22;26324;52.040;11.528;2022-10-28T09:17:17;18.80;77.90
40622;DHT22;26324;52.040;11.528;2022-10-28T09:19:59;19.00;76.40
40622;DHT22;26324;52.040;11.528;2022-10-28T09:22:38;19.00;76.70
40622;DHT22;26324;52.040;11.528;2022-10-28T09:25:22;19.00;76.50
40622;DHT22;26324;52.040;11.528;2022-10-28T09:30:59;19.00;77.40
40622;DHT22;26324;52.040;11.528;2022-10-28T09:36:56;19.20;77.30
40622;DHT22;26324;52.040;11.528;2022-10-28T09:39:27;19.50;76.50
40622;DHT22;26324;52.040;11.528;2022-10-28T09:41:54;19.50;76.30
40622;DHT22;26324;52.040;11.528;2022-10-28T09:44:30;19.50;76.50
40622;DHT22;26324;52.040;11.528;2022-10-28T09:46:58;19.50;76.60
40622;DHT22;26324;52.040;11.528;2022-10-28T09:49:27;19.60;76.40
40622;DHT22;26324;52.040;11.528;2022-10-28T09:52:15;19.60;76.60
40622;DHT22;26324;52.040;11.528;2022-10-28T09:54:47;20.00;76.70
40622;DHT22;26324;52.040;11.528;2022-10-28T09:57:13;20.20;74.60
40622;DHT22;26324;52.040;11.528;2022-10-28T09:59:39;20.40;74.20
40622;DHT22;26324;52.040;11.528;2022-10-28T10:02:05;20.40;73.80
40622;DHT22;26324;52.040;11.528;2022-10-28T10:04:41;20.50;73.40
40622;DHT22;26324;52.040;11.528;2022-10-28T10:07:10;20.80;73.50
40622;DHT22;26324;52.040;11.528;2022-10-28T10:09:38;21.10;73.40
40622;DHT22;26324;52.040;11.528;2022-10-28T10:12:09;21.30;71.60
40622;DHT22;26324;52.040;11.528;2022-10-28T10:14:49;21.30;70.70
40622;DHT22;26324;52.040;11.528;2022-10-28T10:17:27;21.20;71.90
40622;DHT22;26324;52.040;11.528;2022-10-28T10:22:31;21.70;71.40
40622;DHT22;26324;52.040;11.528;2022-10-28T10:24:58;22.00;71.40
40622;DHT22;26324;52.040;11.528;2022-10-28T10:27:25;22.40;70.30
40622;DHT22;26324;52.040;11.528;2022-10-28T10:29:52;22.70;68.90
40622;DHT22;26324;52.040;11.528;2022-10-28T10:35:14;23.10;65.60
40622;DHT22;26324;52.040;11.528;2022-10-28T10:37:46;23.10;65.40
40622;DHT22;26324;52.040;11.528;2022-10-28T10:40:16;22.80;65.10
40622;DHT22;26324;52.040;11.528;2022-10-28T10:42:44;22.60;65.80
40622;DHT22;26324;52.040;11.528;2022-10-28T10:45:22;22.40;66.90
40622;DHT22;26324;52.040;11.528;2022-10-28T10:47:48;22.30;67.10
40622;DHT22;26324;52.040;11.528;2022-10-28T10:50:42;22.10;68.10
40622;DHT22;26324;52.040;11.528;2022-10-28T10:53:30;22.00;68.40
40622;DHT22;26324;52.040;11.528;2022-10-28T10:55:59;22.00;69.50
40622;DHT22;26324;52.040;11.528;2022-10-28T10:58:31;22.10;68.80
40622;DHT22;26324;52.040;11.528;2022-10-28T11:00:58;22.20;69.20
40622;DHT22;26324;52.040;11.528;2022-10-28T11:03:52;22.30;69.10
40622;DHT22;26324;52.040;11.528;2022-10-28T11:06:30;22.50;69.00
40622;DHT22;26324;52.040;11.528;2022-10-28T11:08:59;23.00;68.40
40622;DHT22;26324;52.040;11.528;2022-10-28T11:11:38;23.30;66.20
40622;DHT22;26324;52.040;11.528;2022-10-28T11:14:28;23.60;65.30
40622;DHT22;26324;52.040;11.528;2022-10-28T11:16:58;23.80;64.00
40622;DHT22;26324;52.040;11.528;2022-10-28T11:19:29;23.70;64.30
40622;DHT22;26324;52.040;11.528;2022-10-28T11:29:43;24.60;64.20
40622;DHT22;26324;52.040;11.528;2022-10-28T11:32:12;24.60;63.40
40622;DHT22;26324;52.040;11.528;2022-10-28T11:34:58;24.90;62.80
40622;DHT22;26324;52.040;11.528;2022-10-28T11:37:48;25.10;62.50
40622;DHT22;26324;52.040;11.528;2022-10-28T11:40:32;25.30;61.70
40622;DHT22;26324;52.040;11.528;2022-10-28T11:46:07;25.50;62.00
40622;DHT22;26324;52.040;11.528;2022-10-28T11:48:58;25.50;61.90
40622;DHT22;26324;52.040;11.528;2022-10-28T11:56:47;25.30;59.80
40622;DHT22;26324;52.040;11.528;2022-10-28T11:59:47;25.00;60.80
40622;DHT22;26324;52.040;11.528;2022-10-28T12:02:36;24.50;62.50
40622;DHT22;26324;52.040;11.528;2022-10-28T12:05:17;24.10;63.50
40622;DHT22;26324;52.040;11.528;2022-10-28T12:10:41;23.90;64.80
40622;DHT22;26324;52.040;11.528;2022-10-28T12:13:37;24.00;65.00
40622;DHT22;26324;52.040;11.528;2022-10-28T12:16:29;24.30;65.00
40622;DHT22;26324;52.040;11.528;2022-10-28T12:19:18;25.30;65.20
40622;DHT22;26324;52.040;11.528;2022-10-28T12:24:23;26.50;57.50
40622;DHT22;26324;52.040;11.528;2022-10-28T12:26:55;26.80;57.70
40622;DHT22;26324;52.040;11.528;2022-10-28T12:29:28;27.20;52.20
40622;DHT22;26324;52.040;11.528;2022-10-28T12:32:07;27.60;50.30
40622;DHT22;26324;52.040;11.528;2022-10-28T12:34:40;28.00;51.10
40622;DHT22;26324;52.040;11.528;2022-10-28T12:37:15;28.10;49.60
40622;DHT22;26324;52.040;11.528;2022-10-28T12:42:28;28.50;50.80
40622;DHT22;26324;52.040;11.528;2022-10-28T12:44:57;28.70;46.00
40622;DHT22;26324;52.040;11.528;2022-10-28T12:47:40;28.80;45.90
40622;DHT22;26324;52.040;11.528;2022-10-28T12:52:52;28.30;46.00
40622;DHT22;26324;52.040;11.528;2022-10-28T12:55:36;28.00;46.00
40622;DHT22;26324;52.040;11.528;2022-10-28T12:58:21;27.60;46.90
40622;DHT22;26324;52.040;11.528;2022-10-28T13:00:53;27.90;46.50
40622;DHT22;26324;52.040;11.528;2022-10-28T13:03:20;28.00;45.10
40622;DHT22;26324;52.040;11.528;2022-10-28T13:05:59;28.20;43.60
40622;DHT22;26324;52.040;11.528;2022-10-28T13:14:17;31.40;36.40
40622;DHT22;26324;52.040;11.528;2022-10-28T13:20:21;34.00;32.90
40622;DHT22;26324;52.040;11.528;2022-10-28T13:28:34;34.20;31.60
40622;DHT22;26324;52.040;11.528;2022-10-28T13:31:05;34.50;31.60
40622;DHT22;26324;52.040;11.528;2022-10-28T13:33:33;34.10;30.60
40622;DHT22;26324;52.040;11.528;2022-10-28T13:36:24;33.90;32.80
40622;DHT22;26324;52.040;11.528;2022-10-28T13:39:01;33.50;30.90
40622;DHT22;26324;52.040;11.528;2022-10-28T13:41:31;32.70;31.80
40622;DHT22;26324;52.040;11.528;2022-10-28T13:57:33;28.40;41.20
40622;DHT22;26324;52.040;11.528;2022-10-28T14:00:04;27.80;43.10
40622;DHT22;26324;52.040;11.528;2022-10-28T14:02:46;27.60;43.70
40622;DHT22;26324;52.040;11.528;2022-10-28T14:05:14;27.30;45.40
40622;DHT22;26324;52.040;11.528;2022-10-28T14:10:23;27.60;45.50
40622;DHT22;26324;52.040;11.528;2022-10-28T14:12:53;28.00;44.40
40622;DHT22;26324;52.040;11.528;2022-10-28T14:15:30;28.00;44.60
40622;DHT22;26324;52.040;11.528;2022-10-28T14:18:00;27.70;45.30
40622;DHT22;26324;52.040;11.528;2022-10-28T14:20:37;27.60;45.50
40622;DHT22;26324;52.040;11.528;2022-10-28T14:38:49;26.70;45.10
40622;DHT22;26324;52.040;11.528;2022-10-28T14:44:04;26.30;46.00
40622;DHT22;26324;52.040;11.528;2022-10-28T14:49:37;25.80;47.00
40622;DHT22;26324;52.040;11.528;2022-10-28T14:52:12;25.50;47.60
40622;DHT22;26324;52.040;11.528;2022-10-28T14:54:54;25.20;47.80
40622;DHT22;26324;52.040;11.528;2022-10-28T14:57:25;24.70;48.70
40622;DHT22;26324;52.040;11.528;2022-10-28T14:59:51;24.50;49.20
40622;DHT22;26324;52.040;11.528;2022-10-28T15:02:22;24.10;49.70
40622;DHT22;26324;52.040;11.528;2022-10-28T15:05:11;24.00;50.40
40622;DHT22;26324;52.040;11.528;2022-10-28T15:07:38;23.80;51.20
40622;DHT22;26324;52.040;11.528;2022-10-28T15:12:46;23.50;52.20
40622;DHT22;26324;52.040;11.528;2022-10-28T15:15:22;23.50;52.20
40622;DHT22;26324;52.040;11.528;2022-10-28T15:17:48;23.30;52.30
40622;DHT22;26324;52.040;11.528;2022-10-28T15:20:32;23.10;53.00
40622;DHT22;26324;52.040;11.528;2022-10-28T15:25:36;22.90;53.20
40622;DHT22;26324;52.040;11.528;2022-10-28T15:28:02;22.90;53.40
40622;DHT22;26324;52.040;11.528;2022-10-28T15:30:27;22.70;54.00
40622;DHT22;26324;52.040;11.528;2022-10-28T15:32:54;22.60;54.10
40622;DHT22;26324;52.040;11.528;2022-10-28T15:35:39;22.50;54.70
40622;DHT22;26324;52.040;11.528;2022-10-28T15:40:49;22.30;55.10
40622;DHT22;26324;52.040;11.528;2022-10-28T15:43:18;22.20;55.10
40622;DHT22;26324;52.040;11.528;2022-10-28T15:45:45;22.10;55.50
40622;DHT22;26324;52.040;11.528;2022-10-28T15:48:13;22.10;55.40
40622;DHT22;26324;52.040;11.528;2022-10-28T15:50:39;22.10;55.30
40622;DHT22;26324;52.040;11.528;2022-10-28T15:55:34;22.00;55.80
40622;DHT22;26324;52.040;11.528;2022-10-28T16:00:34;22.00;55.70
40622;DHT22;26324;52.040;11.528;2022-10-28T16:03:02;21.90;56.00
40622;DHT22;26324;52.040;11.528;2022-10-28T16:08:00;21.80;56.20
40622;DHT22;26324;52.040;11.528;2022-10-28T16:10:33;21.70;56.30
40622;DHT22;26324;52.040;11.528;2022-10-28T16:13:00;21.70;56.30
40622;DHT22;26324;52.040;11.528;2022-10-28T16:15:28;21.70;56.30
40622;DHT22;26324;52.040;11.528;2022-10-28T16:17:57;21.60;56.20
40622;DHT22;26324;52.040;11.528;2022-10-28T16:20:29;21.70;56.20
40622;DHT22;26324;52.040;11.528;2022-10-28T16:22:54;21.60;56.50
40622;DHT22;26324;52.040;11.528;2022-10-28T16:25:21;21.60;56.70
40622;DHT22;26324;52.040;11.528;2022-10-28T16:27:50;21.50;57.00
40622;DHT22;26324;52.040;11.528;2022-10-28T16:30:19;21.40;57.20
40622;DHT22;26324;52.040;11.528;2022-10-28T16:32:48;21.40;57.50
40622;DHT22;26324;52.040;11.528;2022-10-28T16:35:20;21.40;57.40
40622;DHT22;26324;52.040;11.528;2022-10-28T16:37:47;21.30;57.60
40622;DHT22;26324;52.040;11.528;2022-10-28T16:40:13;21.40;57.70
40622;DHT22;26324;52.040;11.528;2022-10-28T16:42:39;21.30;57.80
40622;DHT22;26324;52.040;11.528;2022-10-28T16:45:06;21.30;58.20
40622;DHT22;26324;52.040;11.528;2022-10-28T16:47:32;21.10;58.80
40622;DHT22;26324;52.040;11.528;2022-10-28T16:49:58;21.00;59.30
40622;DHT22;26324;52.040;11.528;2022-10-28T16:52:29;20.90;59.70
40622;DHT22;26324;52.040;11.528;2022-10-28T16:54:56;20.70;60.00
40622;DHT22;26324;52.040;11.528;2022-10-28T16:57:22;20.70;60.30
40622;DHT22;26324;52.040;11.528;2022-10-28T16:59:48;20.70;60.50
40622;DHT22;26324;52.040;11.528;2022-10-28T17:02:21;20.60;60.60
40622;DHT22;26324;52.040;11.528;2022-10-28T17:04:48;20.60;61.20
40622;DHT22;26324;52.040;11.528;2022-10-28T17:07:13;20.50;61.50
40622;DHT22;26324;52.040;11.528;2022-10-28T17:09:41;20.40;62.00
40622;DHT22;26324;52.040;11.528;2022-10-28T17:12:17;20.30;62.60
40622;DHT22;26324;52.040;11.528;2022-10-28T17:14:43;20.30;62.70
40622;DHT22;26324;52.040;11.528;2022-10-28T17:17:10;20.30;62.50
40622;DHT22;26324;52.040;11.528;2022-10-28T17:19:37;20.20;62.60
40622;DHT22;26324;52.040;11.528;2022-10-28T17:22:03;20.10;62.80
40622;DHT22;26324;52.040;11.528;2022-10-28T17:24:29;20.00;63.30
40622;DHT22;26324;52.040;11.528;2022-10-28T17:26:56;20.00;63.50
40622;DHT22;26324;52.040;11.528;2022-10-28T17:29:21;20.00;63.60
40622;DHT22;26324;52.040;11.528;2022-10-28T17:31:47;20.00;63.70
40622;DHT22;26324;52.040;11.528;2022-10-28T17:34:13;19.90;64.10
40622;DHT22;26324;52.040;11.528;2022-10-28T17:36:39;19.80;64.40
40622;DHT22;26324;52.040;11.528;2022-10-28T17:39:04;19.80;64.30
40622;DHT22;26324;52.040;11.528;2022-10-28T17:41:30;19.70;64.70
40622;DHT22;26324;52.040;11.528;2022-10-28T17:43:55;19.60;64.80
40622;DHT22;26324;52.040;11.528;2022-10-28T17:46:21;19.60;64.90
40622;DHT22;26324;52.040;11.528;2022-10-28T17:48:47;19.60;65.10
40622;DHT22;26324;52.040;11.528;2022-10-28T17:51:13;19.60;65.10
40622;DHT22;26324;52.040;11.528;2022-10-28T17:53:38;19.60;66.10
40622;DHT22;26324;52.040;11.528;2022-10-28T17:56:05;19.50;65.20
40622;DHT22;26324;52.040;11.528;2022-10-28T17:58:31;19.50;65.20
40622;DHT22;26324;52.040;11.528;2022-10-28T18:01:02;19.40;65.20
40622;DHT22;26324;52.040;11.528;2022-10-28T18:03:28;19.30;65.20
40622;DHT22;26324;52.040;11.528;2022-10-28T18:05:55;19.30;65.40
40622;DHT22;26324;52.040;11.528;2022-10-28T18:08:21;19.20;65.60
40622;DHT22;26324;52.040;11.528;2022-10-28T18:10:51;19.10;66.00
40622;DHT22;26324;52.040;11.528;2022-10-28T18:13:17;19.10;65.80